createdAt,value
2023-11-07T00:01:29.078Z,11.50
2023-11-07T00:03:56.625Z,11.47
2023-11-07T00:06:24.224Z,11.49
2023-11-07T00:08:52.734Z,11.45
2023-11-07T00:11:20.609Z,11.50
2023-11-07T00:13:51.404Z,11.51
2023-11-07T00:16:19.251Z,11.56
2023-11-07T00:18:48.502Z,11.60
2023-11-07T00:21:15.707Z,11.66
2023-11-07T00:23:42.734Z,11.70
2023-11-07T00:26:09.767Z,11.66
2023-11-07T00:28:40.809Z,11.73
2023-11-07T00:31:07.926Z,11.70
2023-11-07T00:33:35.180Z,11.74
2023-11-07T00:36:02.483Z,11.94
2023-11-07T00:38:30.545Z,12.03
2023-11-07T00:40:57.967Z,11.86
2023-11-07T00:43:25.015Z,11.84
2023-11-07T00:45:52.071Z,11.96
2023-11-07T00:48:19.563Z,12.05
2023-11-07T00:50:46.769Z,12.22
2023-11-07T00:53:14.301Z,12.37
2023-11-07T00:55:41.346Z,12.48
2023-11-07T00:58:08.423Z,12.36
2023-11-07T01:00:36.858Z,12.52
2023-11-07T01:03:04.200Z,12.50
2023-11-07T01:05:31.761Z,12.58
2023-11-07T01:07:59.728Z,12.50
2023-11-07T01:10:26.762Z,12.56
2023-11-07T01:12:54.564Z,12.65
2023-11-07T01:15:21.619Z,12.60
2023-11-07T01:17:49.085Z,12.53
2023-11-07T01:20:17.157Z,12.49
2023-11-07T01:22:45.756Z,12.55
2023-11-07T01:25:12.805Z,12.56
2023-11-07T01:27:39.884Z,12.39
2023-11-07T01:30:08.689Z,12.28
2023-11-07T01:32:37.811Z,12.19
2023-11-07T01:35:06.035Z,12.18
2023-11-07T01:37:33.270Z,12.26
2023-11-07T01:40:00.462Z,12.14
2023-11-07T01:42:27.558Z,12.07
2023-11-07T01:44:54.993Z,12.07
2023-11-07T01:47:25.940Z,11.86
2023-11-07T01:49:53.376Z,11.92
2023-11-07T01:52:21.584Z,11.85
2023-11-07T01:54:52.743Z,11.72
2023-11-07T01:57:20.975Z,11.48
2023-11-07T01:59:49.757Z,11.48
2023-11-07T02:02:19.893Z,11.78
2023-11-07T02:04:48.564Z,11.72
2023-11-07T02:07:17.052Z,11.44
2023-11-07T02:09:44.469Z,11.01
2023-11-07T02:12:11.683Z,10.95
2023-11-07T02:14:41.414Z,11.17
2023-11-07T02:17:08.625Z,11.42
2023-11-07T02:19:35.680Z,11.65
2023-11-07T02:22:02.999Z,11.73
2023-11-07T02:24:30.640Z,11.84
2023-11-07T02:26:58.952Z,11.89
2023-11-07T02:29:26.310Z,11.92
2023-11-07T02:31:53.687Z,11.93
2023-11-07T02:34:21.253Z,11.89
2023-11-07T02:36:48.931Z,12.06
2023-11-07T02:39:16.981Z,12.28
2023-11-07T02:41:46.148Z,12.41
2023-11-07T02:44:13.762Z,12.53
2023-11-07T02:46:41.329Z,12.44
2023-11-07T02:49:09.076Z,12.54
2023-11-07T02:51:36.213Z,12.57
2023-11-07T02:54:04.233Z,12.77
2023-11-07T02:56:31.411Z,12.63
2023-11-07T02:59:00.294Z,12.31
2023-11-07T03:01:27.946Z,12.04
2023-11-07T03:03:56.314Z,11.99
2023-11-07T03:06:23.795Z,12.08
2023-11-07T03:08:51.186Z,12.12
2023-11-07T03:11:18.349Z,12.12
2023-11-07T03:13:46.596Z,12.06
2023-11-07T03:16:13.839Z,11.92
2023-11-07T03:18:41.128Z,11.87
2023-11-07T03:21:09.122Z,11.90
2023-11-07T03:23:36.672Z,11.92
2023-11-07T03:26:05.768Z,12.04
2023-11-07T03:28:33.227Z,12.15
2023-11-07T03:31:00.414Z,12.10
2023-11-07T03:33:27.677Z,12.17
2023-11-07T03:35:57.826Z,12.13
2023-11-07T03:38:25.891Z,11.98
2023-11-07T03:40:52.915Z,11.77
2023-11-07T03:43:19.990Z,11.54
2023-11-07T03:45:47.098Z,11.32
2023-11-07T03:48:15.298Z,11.20
2023-11-07T03:50:42.430Z,11.08
2023-11-07T03:53:09.420Z,11.04
2023-11-07T03:55:36.494Z,10.88
2023-11-07T03:58:03.696Z,11.28
2023-11-07T04:00:30.863Z,11.28
2023-11-07T04:02:57.915Z,11.41
2023-11-07T04:05:25.016Z,11.47
2023-11-07T04:07:52.136Z,11.43
2023-11-07T04:10:19.311Z,11.51
2023-11-07T04:12:46.352Z,11.60
2023-11-07T04:15:13.745Z,11.59
2023-11-07T04:17:44.079Z,11.45
2023-11-07T04:20:11.761Z,11.46
2023-11-07T04:22:39.422Z,11.64
2023-11-07T04:25:07.566Z,11.71
2023-11-07T04:27:37.729Z,11.85
2023-11-07T04:30:08.864Z,11.38
2023-11-07T04:32:36.255Z,11.46
2023-11-07T04:35:06.974Z,11.56
2023-11-07T04:37:34.905Z,11.71
2023-11-07T04:40:03.694Z,12.01
2023-11-07T04:42:30.755Z,12.09
2023-11-07T04:44:58.096Z,12.21
2023-11-07T04:47:25.350Z,12.34
2023-11-07T04:49:52.585Z,12.41
2023-11-07T04:52:20.781Z,12.49
2023-11-07T04:54:48.382Z,12.89
2023-11-07T04:57:15.534Z,12.57
2023-11-07T04:59:42.978Z,12.47
2023-11-07T05:02:11.418Z,12.63
2023-11-07T05:04:38.593Z,12.96
2023-11-07T05:07:05.730Z,13.06
2023-11-07T05:09:32.777Z,12.97
2023-11-07T05:12:00.763Z,13.15
2023-11-07T05:14:29.228Z,13.56
2023-11-07T05:16:56.623Z,13.78
2023-11-07T05:19:23.802Z,13.90
2023-11-07T05:21:50.910Z,13.81
2023-11-07T05:24:18.386Z,14.17
2023-11-07T05:26:45.456Z,14.28
2023-11-07T05:29:16.252Z,14.24
2023-11-07T05:31:43.713Z,14.03
2023-11-07T05:34:10.884Z,14.00
2023-11-07T05:36:38.024Z,13.88
2023-11-07T05:39:05.375Z,13.82
2023-11-07T05:41:32.482Z,13.74
2023-11-07T05:43:59.762Z,13.72
2023-11-07T05:46:28.452Z,13.83
2023-11-07T05:48:55.749Z,13.87
2023-11-07T05:51:25.979Z,14.06
2023-11-07T05:53:53.184Z,14.30
2023-11-07T05:56:20.726Z,14.36
2023-11-07T05:58:49.665Z,14.37
2023-11-07T06:01:17.147Z,14.42
2023-11-07T06:03:44.362Z,14.38
2023-11-07T06:06:11.762Z,14.41
2023-11-07T06:08:38.872Z,14.55
2023-11-07T06:11:06.121Z,14.66
2023-11-07T06:13:33.177Z,14.85
2023-11-07T06:16:00.222Z,15.14
2023-11-07T06:18:27.783Z,15.45
2023-11-07T06:20:55.415Z,15.86
2023-11-07T06:23:23.914Z,16.10
2023-11-07T06:25:51.242Z,16.23
2023-11-07T06:28:18.392Z,16.67
2023-11-07T06:30:45.502Z,16.95
2023-11-07T06:33:13.625Z,17.04
2023-11-07T06:35:41.159Z,17.19
2023-11-07T06:38:08.735Z,17.38
2023-11-07T06:40:36.175Z,17.62
2023-11-07T06:43:04.954Z,17.64
2023-11-07T06:45:32.011Z,17.95
2023-11-07T06:47:59.352Z,18.20
2023-11-07T06:50:27.637Z,18.32
2023-11-07T06:52:55.433Z,18.30
2023-11-07T06:55:26.701Z,18.71
2023-11-07T06:57:55.685Z,18.90
2023-11-07T07:00:26.948Z,18.80
2023-11-07T07:02:57.931Z,18.57
2023-11-07T07:05:26.301Z,18.70
2023-11-07T07:07:53.477Z,18.63
2023-11-07T07:10:20.534Z,18.91
2023-11-07T07:12:47.603Z,18.98
2023-11-07T07:15:15.685Z,19.16
2023-11-07T07:17:42.909Z,19.13
2023-11-07T07:20:13.720Z,18.90
2023-11-07T07:22:45.825Z,19.15
2023-11-07T07:25:22.337Z,19.24
2023-11-07T07:27:49.965Z,19.55
2023-11-07T07:30:22.826Z,19.46
2023-11-07T07:32:52.583Z,19.29
2023-11-07T07:35:23.919Z,19.39
2023-11-07T07:37:54.848Z,19.41
2023-11-07T07:40:27.445Z,19.64
2023-11-07T07:42:56.005Z,19.63
2023-11-07T07:45:24.735Z,19.77
2023-11-07T07:47:52.175Z,19.86
2023-11-07T07:50:20.368Z,19.91
2023-11-07T07:52:49.835Z,19.96
2023-11-07T07:55:31.626Z,19.91
2023-11-07T07:58:02.224Z,20.19
2023-11-07T08:00:32.626Z,20.30
2023-11-07T08:03:06.832Z,20.15
2023-11-07T08:05:41.153Z,20.27
2023-11-07T08:08:10.190Z,20.22
2023-11-07T08:10:37.993Z,20.55
2023-11-07T08:13:11.785Z,20.64
2023-11-07T08:15:39.069Z,20.84
2023-11-07T08:18:08.420Z,20.70
2023-11-07T08:20:38.534Z,20.89
2023-11-07T08:23:06.623Z,21.07
2023-11-07T08:25:34.401Z,21.25
2023-11-07T08:28:01.893Z,21.16
2023-11-07T08:30:29.282Z,20.67
2023-11-07T08:32:56.486Z,20.71
2023-11-07T08:35:24.384Z,20.80
2023-11-07T08:37:52.462Z,20.49
2023-11-07T08:40:22.664Z,20.75
2023-11-07T08:42:52.181Z,20.63
2023-11-07T08:45:21.005Z,20.62
2023-11-07T08:47:52.317Z,20.70
2023-11-07T08:50:22.305Z,20.49
2023-11-07T08:52:51.543Z,20.91
2023-11-07T08:55:19.824Z,20.95
2023-11-07T08:57:47.808Z,20.70
2023-11-07T09:00:23.112Z,20.89
2023-11-07T09:02:52.136Z,21.00
2023-11-07T09:05:19.608Z,21.02
2023-11-07T09:07:48.125Z,20.97
2023-11-07T09:10:15.591Z,21.07
2023-11-07T09:12:43.521Z,21.02
2023-11-07T09:15:12.878Z,21.37
2023-11-07T09:17:42.249Z,21.33
2023-11-07T09:20:16.273Z,21.48
2023-11-07T09:22:44.406Z,21.24
2023-11-07T09:25:13.396Z,21.62
2023-11-07T09:27:41.014Z,21.46
2023-11-07T09:30:12.871Z,21.40
2023-11-07T09:32:43.565Z,21.55
2023-11-07T09:35:11.669Z,21.83
2023-11-07T09:37:41.523Z,21.76
2023-11-07T09:40:22.097Z,21.72
2023-11-07T09:42:52.318Z,22.08
2023-11-07T10:16:58.362Z,20.20
2023-11-07T10:19:27.109Z,20.59
2023-11-07T10:21:54.325Z,20.95
2023-11-07T10:24:21.808Z,21.17
2023-11-07T10:27:03.191Z,21.46
2023-11-07T10:29:38.246Z,21.58
2023-11-07T10:32:11.583Z,21.58
2023-11-07T10:34:40.755Z,21.79
2023-11-07T10:37:08.137Z,21.95
2023-11-07T10:39:36.848Z,21.99
2023-11-07T10:42:20.882Z,21.93
2023-11-07T10:44:51.660Z,21.87
2023-11-07T10:47:21.347Z,21.62
2023-11-07T10:49:50.567Z,21.64
2023-11-07T10:52:19.153Z,21.58
2023-11-07T10:54:46.320Z,21.63
2023-11-07T10:57:18.673Z,21.61
2023-11-07T10:59:48.060Z,21.63
2023-11-07T11:02:17.487Z,21.49
2023-11-07T11:04:48.675Z,21.68
2023-11-07T11:07:19.743Z,21.73
2023-11-07T11:09:47.851Z,21.76
2023-11-07T11:12:18.584Z,21.43
2023-11-07T11:14:47.248Z,21.41
2023-11-07T11:17:33.350Z,21.43
2023-11-07T11:20:24.123Z,21.39
2023-11-07T11:23:04.299Z,21.08
2023-11-07T11:26:03.696Z,20.96
2023-11-07T11:28:42.143Z,21.03
2023-11-07T11:31:15.383Z,21.09
2023-11-07T11:33:46.742Z,21.15
2023-11-07T11:36:38.146Z,20.84
2023-11-07T11:39:28.199Z,20.80
2023-11-07T11:41:59.628Z,20.60
2023-11-07T11:44:26.881Z,20.75
2023-11-07T11:46:56.892Z,20.72
2023-11-07T11:49:25.233Z,20.44
2023-11-07T11:51:54.373Z,20.67
2023-11-07T11:54:24.146Z,20.87
2023-11-07T11:56:51.721Z,20.50
2023-11-07T11:59:26.115Z,20.56
2023-11-07T12:02:01.497Z,20.24
2023-11-07T12:04:42.521Z,20.54
2023-11-07T12:07:21.544Z,20.35
2023-11-07T12:09:51.379Z,20.36
2023-11-07T12:12:20.356Z,19.92
2023-11-07T12:14:56.614Z,20.29
2023-11-07T12:17:24.423Z,20.25
2023-11-07T12:20:07.978Z,20.04
2023-11-07T12:22:39.603Z,19.71
2023-11-07T12:25:21.635Z,20.03
2023-11-07T12:27:58.136Z,19.93
2023-11-07T12:30:25.745Z,19.98
2023-11-07T12:33:11.288Z,19.98
2023-11-07T12:35:39.970Z,19.78
2023-11-07T12:38:09.226Z,20.04
2023-11-07T12:40:38.605Z,20.05
2023-11-07T12:43:09.100Z,20.09
2023-11-07T12:45:38.735Z,19.94
2023-11-07T12:48:07.934Z,19.80
2023-11-07T12:50:43.336Z,19.84
2023-11-07T12:53:11.241Z,19.80
2023-11-07T12:55:39.634Z,19.92
2023-11-07T12:58:08.648Z,19.80
2023-11-07T13:00:56.205Z,19.61
2023-11-07T13:03:44.057Z,19.81
2023-11-07T13:06:20.624Z,19.67
2023-11-07T13:08:48.718Z,19.86
2023-11-07T13:11:18.343Z,19.51
2023-11-07T13:13:50.658Z,19.72
2023-11-07T13:16:19.152Z,19.62
2023-11-07T13:18:48.031Z,19.43
2023-11-07T13:21:15.970Z,19.42
2023-11-07T13:23:43.855Z,19.50
2023-11-07T13:27:06.636Z,19.28
2023-11-07T13:29:52.463Z,19.16
2023-11-07T13:32:19.646Z,19.18
2023-11-07T13:34:47.132Z,19.06
2023-11-07T13:37:15.537Z,19.10
2023-11-07T13:39:44.728Z,19.23
2023-11-07T13:42:11.796Z,19.20
2023-11-07T13:44:38.799Z,19.14
2023-11-07T13:47:05.835Z,19.02
2023-11-07T13:49:34.506Z,18.99
2023-11-07T13:52:03.200Z,19.10
2023-11-07T13:54:30.499Z,18.92
2023-11-07T13:56:57.638Z,18.96
2023-11-07T13:59:25.113Z,18.87
2023-11-07T14:01:52.896Z,18.75
2023-11-07T14:04:20.214Z,18.69
2023-11-07T14:06:47.421Z,18.53
2023-11-07T14:09:14.481Z,18.67
2023-11-07T14:11:42.442Z,18.63
2023-11-07T14:14:09.485Z,18.48
2023-11-07T14:16:36.658Z,18.24
2023-11-07T14:19:09.381Z,18.30
2023-11-07T14:21:36.713Z,18.25
2023-11-07T14:24:04.146Z,18.21
2023-11-07T14:26:33.682Z,18.07
2023-11-07T14:29:02.795Z,17.96
2023-11-07T14:31:32.837Z,17.93
2023-11-07T14:34:00.523Z,17.88
2023-11-07T14:36:30.865Z,17.65
2023-11-07T14:38:58.128Z,17.61
2023-11-07T14:41:26.252Z,17.47
2023-11-07T14:43:53.376Z,17.19
2023-11-07T14:46:21.203Z,17.11
2023-11-07T14:48:48.526Z,16.92
2023-11-07T14:51:16.824Z,16.93
2023-11-07T14:53:43.849Z,16.66
2023-11-07T14:56:12.305Z,16.49
2023-11-07T14:58:39.439Z,16.47
2023-11-07T15:01:07.768Z,16.27
2023-11-07T15:03:34.924Z,16.13
2023-11-07T15:06:03.935Z,15.97
2023-11-07T15:08:31.832Z,16.03
2023-11-07T15:11:01.184Z,15.98
2023-11-07T15:13:28.248Z,15.85
2023-11-07T15:15:55.268Z,15.82
2023-11-07T15:18:25.103Z,15.75
2023-11-07T15:20:53.829Z,15.81
2023-11-07T15:23:21.591Z,15.91
2023-11-07T15:25:48.620Z,15.93
2023-11-07T15:28:16.733Z,16.07
2023-11-07T15:30:43.814Z,16.01
2023-11-07T15:33:10.936Z,16.06
2023-11-07T15:35:39.691Z,16.03
2023-11-07T15:38:10.536Z,16.01
2023-11-07T15:40:40.642Z,15.91
2023-11-07T15:43:07.976Z,15.96
2023-11-07T15:45:35.736Z,16.14
2023-11-07T15:48:09.408Z,16.13
2023-11-07T15:50:38.292Z,16.26
2023-11-07T15:53:08.680Z,16.29
2023-11-07T15:55:38.101Z,16.21
2023-11-07T15:58:05.489Z,16.26
2023-11-07T16:00:34.939Z,16.22
2023-11-07T16:03:02.402Z,16.16
2023-11-07T16:05:34.249Z,16.01
2023-11-07T16:08:02.137Z,15.97
2023-11-07T16:10:30.790Z,16.14
2023-11-07T16:12:58.015Z,16.12
2023-11-07T16:15:25.226Z,16.11
2023-11-07T16:17:53.071Z,15.89
2023-11-07T16:20:21.127Z,15.83
2023-11-07T16:22:48.508Z,15.89
2023-11-07T16:25:17.584Z,16.01
2023-11-07T16:27:45.255Z,16.06
2023-11-07T16:30:14.957Z,16.09
2023-11-07T16:32:42.573Z,16.08
2023-11-07T16:35:11.371Z,16.15
2023-11-07T16:37:39.478Z,16.20
2023-11-07T16:40:13.062Z,16.08
2023-11-07T16:42:42.249Z,16.07
2023-11-07T16:45:13.560Z,16.05
2023-11-07T16:47:43.323Z,16.17
2023-11-07T16:50:13.557Z,16.23
2023-11-07T16:52:41.434Z,16.21
2023-11-07T16:55:15.848Z,16.14
2023-11-07T16:57:46.052Z,16.07
2023-11-07T17:00:16.094Z,16.15
2023-11-07T17:02:43.664Z,16.06
2023-11-07T17:05:13.739Z,16.22
2023-11-07T17:07:40.908Z,16.22
2023-11-07T17:10:08.538Z,16.13
2023-11-07T17:12:36.779Z,16.33
2023-11-07T17:15:05.639Z,16.33
2023-11-07T17:17:32.798Z,16.26
2023-11-07T17:19:59.994Z,16.34
2023-11-07T17:22:27.034Z,16.17
2023-11-07T17:24:54.300Z,16.24
2023-11-07T17:27:21.627Z,16.32
2023-11-07T17:29:48.698Z,16.32
2023-11-07T17:32:16.250Z,16.28
2023-11-07T17:34:43.338Z,16.32
2023-11-07T17:37:10.375Z,16.28
2023-11-07T17:39:37.604Z,16.30
2023-11-07T17:42:06.434Z,16.34
2023-11-07T17:44:36.895Z,16.44
2023-11-07T17:47:04.111Z,16.51
2023-11-07T17:49:31.285Z,16.45
2023-11-07T17:51:59.088Z,16.24
2023-11-07T17:54:26.260Z,16.23
2023-11-07T17:56:53.348Z,16.16
2023-11-07T17:59:20.503Z,16.32
2023-11-07T18:01:47.489Z,16.41
2023-11-07T18:04:14.724Z,16.38
2023-11-07T18:06:44.617Z,16.41
2023-11-07T18:09:14.502Z,16.27
2023-11-07T18:11:43.481Z,16.32
2023-11-07T18:14:12.806Z,16.33
2023-11-07T18:16:39.935Z,16.44
2023-11-07T18:19:07.210Z,16.42
2023-11-07T18:21:42.820Z,16.47
2023-11-07T18:24:12.567Z,16.64
2023-11-07T18:26:44.718Z,16.51
2023-11-07T18:29:11.806Z,16.60
2023-11-07T18:31:39.152Z,16.62
2023-11-07T18:34:16.825Z,16.66
2023-11-07T18:37:09.618Z,16.67
2023-11-07T18:39:37.612Z,16.51
2023-11-07T18:42:05.204Z,16.53
2023-11-07T18:44:35.778Z,16.64
2023-11-07T18:47:03.520Z,16.66
2023-11-07T18:49:33.133Z,16.67
2023-11-07T18:52:01.177Z,16.57
2023-11-07T18:54:29.029Z,16.67
2023-11-07T18:56:58.493Z,16.63
2023-11-07T18:59:34.142Z,16.53
2023-11-07T19:02:08.248Z,16.53
2023-11-07T19:04:38.093Z,16.62
2023-11-07T19:07:06.517Z,16.66
2023-11-07T19:09:33.747Z,16.77
2023-11-07T19:12:04.242Z,16.67
2023-11-07T19:14:31.372Z,16.72
2023-11-07T19:16:58.485Z,16.59
2023-11-07T19:19:25.906Z,16.47
2023-11-07T19:21:53.125Z,16.50
2023-11-07T19:24:22.179Z,16.56
2023-11-07T19:26:50.517Z,16.38
2023-11-07T19:29:18.141Z,16.42
2023-11-07T19:31:50.528Z,16.57
2023-11-07T19:34:20.853Z,16.52
2023-11-07T19:36:49.246Z,16.64
2023-11-07T19:39:16.584Z,16.64
2023-11-07T19:41:44.423Z,16.64
2023-11-07T19:44:11.768Z,16.52
2023-11-07T19:46:38.988Z,16.78
2023-11-07T19:49:09.299Z,16.81
2023-11-07T19:51:36.920Z,16.62
2023-11-07T19:54:04.132Z,16.82
2023-11-07T19:56:38.619Z,16.71
2023-11-07T19:59:06.464Z,16.72
2023-11-07T20:01:35.341Z,16.78
2023-11-07T20:04:03.928Z,16.80
2023-11-07T20:06:31.129Z,16.77
2023-11-07T20:08:58.466Z,16.77
2023-11-07T20:11:26.334Z,16.65
2023-11-07T20:13:53.493Z,16.56
2023-11-07T20:16:20.660Z,16.59
2023-11-07T20:18:47.973Z,16.64
2023-11-07T20:21:16.369Z,16.49
2023-11-07T20:23:43.398Z,16.58
2023-11-07T20:26:10.454Z,16.61
2023-11-07T20:28:37.468Z,16.63
2023-11-07T20:31:05.117Z,16.46
2023-11-07T20:33:41.550Z,16.50
2023-11-07T20:36:20.246Z,16.70
2023-11-07T20:38:49.102Z,16.72
2023-11-07T20:41:17.225Z,16.67
2023-11-07T20:43:44.374Z,16.55
2023-11-07T20:46:26.811Z,16.49
2023-11-07T20:49:00.662Z,16.55
2023-11-07T20:51:27.851Z,16.60
2023-11-07T20:53:54.843Z,16.52
2023-11-07T20:56:25.187Z,16.52
2023-11-07T20:58:52.184Z,16.51
2023-11-07T21:01:19.293Z,16.54
2023-11-07T21:03:46.374Z,16.46
2023-11-07T21:06:13.478Z,16.60
2023-11-07T21:08:40.914Z,16.44
2023-11-07T21:11:12.341Z,16.56
2023-11-07T21:13:39.340Z,16.67
2023-11-07T21:16:06.779Z,16.62
2023-11-07T21:18:33.849Z,16.67
2023-11-07T21:21:00.951Z,16.79
2023-11-07T21:23:28.303Z,16.93
2023-11-07T21:25:55.338Z,16.81
2023-11-07T21:28:22.389Z,16.69
2023-11-07T21:30:49.416Z,16.72
2023-11-07T21:33:16.694Z,16.79
2023-11-07T21:35:44.278Z,16.68
2023-11-07T21:38:11.837Z,16.71
2023-11-07T21:40:41.058Z,16.65
2023-11-07T21:43:08.408Z,16.64
2023-11-07T21:45:35.612Z,16.74
2023-11-07T21:48:06.308Z,16.53
2023-11-07T21:50:37.242Z,16.47
2023-11-07T21:53:04.234Z,16.36
2023-11-07T21:55:31.313Z,16.45
2023-11-07T21:57:58.336Z,16.39
2023-11-07T22:00:25.470Z,16.59
2023-11-07T22:02:52.587Z,16.61
2023-11-07T22:05:20.703Z,16.50
2023-11-07T22:07:47.830Z,16.50
2023-11-07T22:10:15.636Z,16.50
2023-11-07T22:12:47.348Z,16.58
2023-11-07T22:15:14.656Z,16.39
2023-11-07T22:17:43.416Z,16.43
2023-11-07T22:20:13.515Z,16.49
2023-11-07T22:22:43.977Z,16.57
2023-11-07T22:25:11.769Z,16.49
2023-11-07T22:27:40.031Z,16.41
2023-11-07T22:30:11.018Z,16.66
2023-11-07T22:32:39.081Z,16.53
2023-11-07T22:35:06.856Z,16.45
2023-11-07T22:37:34.002Z,16.56
2023-11-07T22:40:01.551Z,16.50
2023-11-07T22:42:28.805Z,16.66
2023-11-07T22:44:56.192Z,16.76
2023-11-07T22:47:23.749Z,16.71
2023-11-07T22:49:50.935Z,16.79
2023-11-07T22:52:17.946Z,16.71
2023-11-07T22:54:45.015Z,16.68
2023-11-07T22:57:12.111Z,16.84
2023-11-07T22:59:39.617Z,16.71
2023-11-07T23:02:07.007Z,16.78
2023-11-07T23:04:34.223Z,16.97
2023-11-07T23:07:01.268Z,17.05
2023-11-07T23:09:28.335Z,17.12
2023-11-07T23:11:56.971Z,16.96
2023-11-07T23:14:24.261Z,16.91
2023-11-07T23:16:54.272Z,16.98
2023-11-07T23:19:21.327Z,17.00
2023-11-07T23:21:48.476Z,17.05
2023-11-07T23:24:15.599Z,16.92
2023-11-07T23:26:48.130Z,16.98
2023-11-07T23:29:16.077Z,16.86
2023-11-07T23:31:43.164Z,16.73
2023-11-07T23:34:11.591Z,16.78
2023-11-07T23:36:38.700Z,16.83
2023-11-07T23:39:06.188Z,16.89
2023-11-07T23:41:33.238Z,16.64
2023-11-07T23:44:00.288Z,16.61
2023-11-07T23:46:27.973Z,16.70
2023-11-07T23:48:55.112Z,16.69
2023-11-07T23:51:22.246Z,16.78
2023-11-07T23:53:49.299Z,16.77
2023-11-07T23:56:16.374Z,16.89
2023-11-07T23:58:44.309Z,17.03
